sensor_id;sensor_type;location;lat;lon;timestamp;temperature;humidity
24091;DHT22;12272;52.426;17.100;2022-08-21T00:03:01;19.00;99.90
24091;DHT22;12272;52.426;17.100;2022-08-21T00:08:05;19.10;99.90
24091;DHT22;12272;52.426;17.100;2022-08-21T00:13:08;19.10;99.90
24091;DHT22;12272;52.426;17.100;2022-08-21T00:18:11;19.20;99.90
24091;DHT22;12272;52.426;17.100;2022-08-21T00:23:13;19.10;99.90
24091;DHT22;12272;52.426;17.100;2022-08-21T00:28:16;18.90;99.90
24091;DHT22;12272;52.426;17.100;2022-08-21T00:33:19;18.80;99.90
24091;DHT22;12272;52.426;17.100;2022-08-21T00:38:22;18.80;99.90
24091;DHT22;12272;52.426;17.100;2022-08-21T00:43:28;18.60;99.90
24091;DHT22;12272;52.426;17.100;2022-08-21T00:48:32;18.80;99.90
24091;DHT22;12272;52.426;17.100;2022-08-21T00:53:38;18.50;99.90
24091;DHT22;12272;52.426;17.100;2022-08-21T00:58:42;18.40;99.90
24091;DHT22;12272;52.426;17.100;2022-08-21T01:03:46;18.40;99.90
24091;DHT22;12272;52.426;17.100;2022-08-21T01:08:51;18.60;99.90
24091;DHT22;12272;52.426;17.100;2022-08-21T01:13:54;18.30;99.90
24091;DHT22;12272;52.426;17.100;2022-08-21T01:18:57;18.10;99.90
24091;DHT22;12272;52.426;17.100;2022-08-21T01:24:00;18.20;99.90
24091;DHT22;12272;52.426;17.100;2022-08-21T01:34:12;17.90;99.90
24091;DHT22;12272;52.426;17.100;2022-08-21T01:39:15;17.90;99.90
24091;DHT22;12272;52.426;17.100;2022-08-21T01:44:21;17.80;99.90
24091;DHT22;12272;52.426;17.100;2022-08-21T01:49:23;17.90;99.90
24091;DHT22;12272;52.426;17.100;2022-08-21T01:54:26;17.80;99.90
24091;DHT22;12272;52.426;17.100;2022-08-21T01:59:29;17.70;99.90
24091;DHT22;12272;52.426;17.100;2022-08-21T02:04:32;17.60;99.90
24091;DHT22;12272;52.426;17.100;2022-08-21T02:09:35;17.60;99.90
24091;DHT22;12272;52.426;17.100;2022-08-21T02:14:41;17.60;99.90
24091;DHT22;12272;52.426;17.100;2022-08-21T02:19:44;17.80;99.90
24091;DHT22;12272;52.426;17.100;2022-08-21T02:24:46;17.70;99.90
24091;DHT22;12272;52.426;17.100;2022-08-21T02:29:57;17.70;99.90
24091;DHT22;12272;52.426;17.100;2022-08-21T02:35:00;17.80;99.90
24091;DHT22;12272;52.426;17.100;2022-08-21T02:40:03;18.10;99.90
24091;DHT22;12272;52.426;17.100;2022-08-21T02:50:09;17.70;99.90
24091;DHT22;12272;52.426;17.100;2022-08-21T02:55:12;17.80;99.90
24091;DHT22;12272;52.426;17.100;2022-08-21T03:00:16;17.90;99.90
24091;DHT22;12272;52.426;17.100;2022-08-21T03:05:19;17.90;99.90
24091;DHT22;12272;52.426;17.100;2022-08-21T03:10:22;17.70;99.90
24091;DHT22;12272;52.426;17.100;2022-08-21T03:15:25;17.70;99.90
24091;DHT22;12272;52.426;17.100;2022-08-21T03:20:28;17.80;99.90
24091;DHT22;12272;52.426;17.100;2022-08-21T03:25:32;17.70;99.90
24091;DHT22;12272;52.426;17.100;2022-08-21T03:30:44;17.70;99.90
24091;DHT22;12272;52.426;17.100;2022-08-21T03:35:55;17.80;99.90
24091;DHT22;12272;52.426;17.100;2022-08-21T03:40:59;17.70;99.90
24091;DHT22;12272;52.426;17.100;2022-08-21T03:46:04;17.60;99.90
24091;DHT22;12272;52.426;17.100;2022-08-21T03:51:08;17.60;99.90
24091;DHT22;12272;52.426;17.100;2022-08-21T03:56:10;17.60;99.90
24091;DHT22;12272;52.426;17.100;2022-08-21T04:01:13;17.60;99.90
24091;DHT22;12272;52.426;17.100;2022-08-21T04:06:16;17.60;99.90
24091;DHT22;12272;52.426;17.100;2022-08-21T04:11:19;17.40;99.90
24091;DHT22;12272;52.426;17.100;2022-08-21T04:16:21;17.50;99.90
24091;DHT22;12272;52.426;17.100;2022-08-21T04:21:24;17.50;99.90
24091;DHT22;12272;52.426;17.100;2022-08-21T04:26:27;17.40;99.90
24091;DHT22;12272;52.426;17.100;2022-08-21T04:31:29;17.40;99.90
24091;DHT22;12272;52.426;17.100;2022-08-21T04:36:33;17.50;99.90
24091;DHT22;12272;52.426;17.100;2022-08-21T04:41:35;17.40;99.90
24091;DHT22;12272;52.426;17.100;2022-08-21T04:46:38;17.40;99.90
24091;DHT22;12272;52.426;17.100;2022-08-21T04:51:41;17.40;99.90
24091;DHT22;12272;52.426;17.100;2022-08-21T04:56:52;17.40;99.90
24091;DHT22;12272;52.426;17.100;2022-08-21T05:01:57;17.40;99.90
24091;DHT22;12272;52.426;17.100;2022-08-21T05:07:03;17.50;99.90
24091;DHT22;12272;52.426;17.100;2022-08-21T05:12:08;17.50;99.90
24091;DHT22;12272;52.426;17.100;2022-08-21T05:17:11;17.40;99.90
24091;DHT22;12272;52.426;17.100;2022-08-21T05:22:20;17.60;99.90
24091;DHT22;12272;52.426;17.100;2022-08-21T05:27:23;17.60;99.90
24091;DHT22;12272;52.426;17.100;2022-08-21T05:32:28;17.60;99.90
24091;DHT22;12272;52.426;17.100;2022-08-21T05:37:31;17.60;99.90
24091;DHT22;12272;52.426;17.100;2022-08-21T05:42:37;18.00;99.90
24091;DHT22;12272;52.426;17.100;2022-08-21T05:47:39;18.00;99.90
24091;DHT22;12272;52.426;17.100;2022-08-21T05:52:42;17.70;99.90
24091;DHT22;12272;52.426;17.100;2022-08-21T05:57:45;17.60;99.90
24091;DHT22;12272;52.426;17.100;2022-08-21T06:02:47;17.70;99.90
24091;DHT22;12272;52.426;17.100;2022-08-21T06:07:52;17.60;99.90
24091;DHT22;12272;52.426;17.100;2022-08-21T06:12:56;17.70;99.90
24091;DHT22;12272;52.426;17.100;2022-08-21T06:17:58;17.60;99.90
24091;DHT22;12272;52.426;17.100;2022-08-21T06:23:02;17.60;99.90
24091;DHT22;12272;52.426;17.100;2022-08-21T06:28:07;17.60;99.90
24091;DHT22;12272;52.426;17.100;2022-08-21T06:33:13;17.60;99.90
24091;DHT22;12272;52.426;17.100;2022-08-21T06:38:19;17.60;99.90
24091;DHT22;12272;52.426;17.100;2022-08-21T06:43:22;17.50;99.90
24091;DHT22;12272;52.426;17.100;2022-08-21T06:48:40;17.60;99.90
24091;DHT22;12272;52.426;17.100;2022-08-21T06:53:42;17.60;99.90
24091;DHT22;12272;52.426;17.100;2022-08-21T06:58:45;17.60;99.90
24091;DHT22;12272;52.426;17.100;2022-08-21T07:03:48;17.60;99.90
24091;DHT22;12272;52.426;17.100;2022-08-21T07:08:51;17.50;99.90
24091;DHT22;12272;52.426;17.100;2022-08-21T07:13:55;17.60;99.90
24091;DHT22;12272;52.426;17.100;2022-08-21T07:18:58;17.60;99.90
24091;DHT22;12272;52.426;17.100;2022-08-21T07:24:01;17.60;99.90
24091;DHT22;12272;52.426;17.100;2022-08-21T07:29:04;17.70;99.90
24091;DHT22;12272;52.426;17.100;2022-08-21T07:34:07;17.70;99.90
24091;DHT22;12272;52.426;17.100;2022-08-21T07:39:11;17.80;99.90
24091;DHT22;12272;52.426;17.100;2022-08-21T07:49:16;18.20;99.90
24091;DHT22;12272;52.426;17.100;2022-08-21T07:54:18;18.20;99.90
24091;DHT22;12272;52.426;17.100;2022-08-21T07:59:34;18.10;99.90
24091;DHT22;12272;52.426;17.100;2022-08-21T08:04:37;18.30;99.90
24091;DHT22;12272;52.426;17.100;2022-08-21T08:09:52;18.30;99.90
24091;DHT22;12272;52.426;17.100;2022-08-21T08:14:59;18.10;99.90
24091;DHT22;12272;52.426;17.100;2022-08-21T08:20:03;18.20;99.90
24091;DHT22;12272;52.426;17.100;2022-08-21T08:25:07;18.50;99.90
24091;DHT22;12272;52.426;17.100;2022-08-21T08:30:13;18.70;99.90
24091;DHT22;12272;52.426;17.100;2022-08-21T08:35:16;18.40;99.90
24091;DHT22;12272;52.426;17.100;2022-08-21T08:40:31;18.40;99.90
24091;DHT22;12272;52.426;17.100;2022-08-21T08:45:37;18.30;99.90
24091;DHT22;12272;52.426;17.100;2022-08-21T08:50:54;18.40;99.90
24091;DHT22;12272;52.426;17.100;2022-08-21T08:55:57;18.60;99.90
24091;DHT22;12272;52.426;17.100;2022-08-21T09:01:00;19.60;99.90
24091;DHT22;12272;52.426;17.100;2022-08-21T09:17:01;19.60;99.90
24091;DHT22;12272;52.426;17.100;2022-08-21T09:27:17;18.80;99.90
24091;DHT22;12272;52.426;17.100;2022-08-21T09:32:23;18.60;99.90
24091;DHT22;12272;52.426;17.100;2022-08-21T09:48:20;18.50;99.90
24091;DHT22;12272;52.426;17.100;2022-08-21T09:53:29;18.50;99.90
24091;DHT22;12272;52.426;17.100;2022-08-21T09:58:38;18.50;99.90
24091;DHT22;12272;52.426;17.100;2022-08-21T10:03:41;18.50;99.90
24091;DHT22;12272;52.426;17.100;2022-08-21T10:08:44;18.80;99.90
24091;DHT22;12272;52.426;17.100;2022-08-21T10:14:13;19.20;99.90
24091;DHT22;12272;52.426;17.100;2022-08-21T10:24:44;21.90;99.90
24091;DHT22;12272;52.426;17.100;2022-08-21T10:30:32;22.20;99.90
24091;DHT22;12272;52.426;17.100;2022-08-21T10:47:46;19.50;99.90
24091;DHT22;12272;52.426;17.100;2022-08-21T10:53:22;19.80;99.90
24091;DHT22;12272;52.426;17.100;2022-08-21T10:58:40;19.00;99.90
24091;DHT22;12272;52.426;17.100;2022-08-21T11:03:55;18.70;99.90
24091;DHT22;12272;52.426;17.100;2022-08-21T11:09:19;18.90;99.90
24091;DHT22;12272;52.426;17.100;2022-08-21T11:14:47;18.80;99.90
24091;DHT22;12272;52.426;17.100;2022-08-21T11:19:59;18.60;99.90
24091;DHT22;12272;52.426;17.100;2022-08-21T11:25:17;18.60;99.90
24091;DHT22;12272;52.426;17.100;2022-08-21T11:30:30;18.60;99.90
24091;DHT22;12272;52.426;17.100;2022-08-21T11:46:47;18.70;99.90
24091;DHT22;12272;52.426;17.100;2022-08-21T12:02:18;19.00;99.90
24091;DHT22;12272;52.426;17.100;2022-08-21T12:07:38;18.60;99.90
24091;DHT22;12272;52.426;17.100;2022-08-21T12:12:44;18.90;99.90
24091;DHT22;12272;52.426;17.100;2022-08-21T12:17:59;18.90;99.90
24091;DHT22;12272;52.426;17.100;2022-08-21T12:23:27;18.80;99.90
24091;DHT22;12272;52.426;17.100;2022-08-21T12:28:29;19.00;99.90
24091;DHT22;12272;52.426;17.100;2022-08-21T12:33:38;18.70;99.90
24091;DHT22;12272;52.426;17.100;2022-08-21T12:38:52;18.80;99.90
24091;DHT22;12272;52.426;17.100;2022-08-21T12:44:00;18.60;99.90
24091;DHT22;12272;52.426;17.100;2022-08-21T12:49:14;18.60;99.90
24091;DHT22;12272;52.426;17.100;2022-08-21T12:54:26;18.70;99.90
24091;DHT22;12272;52.426;17.100;2022-08-21T12:59:29;18.70;99.90
24091;DHT22;12272;52.426;17.100;2022-08-21T13:04:38;18.60;99.90
24091;DHT22;12272;52.426;17.100;2022-08-21T13:09:52;18.60;99.90
24091;DHT22;12272;52.426;17.100;2022-08-21T13:14:58;18.60;99.90
24091;DHT22;12272;52.426;17.100;2022-08-21T13:20:10;18.60;99.90
24091;DHT22;12272;52.426;17.100;2022-08-21T13:25:29;18.50;99.90
24091;DHT22;12272;52.426;17.100;2022-08-21T13:30:33;18.40;99.90
24091;DHT22;12272;52.426;17.100;2022-08-21T13:41:05;18.60;99.90
24091;DHT22;12272;52.426;17.100;2022-08-21T13:46:13;18.40;99.90
24091;DHT22;12272;52.426;17.100;2022-08-21T13:51:16;18.70;99.90
24091;DHT22;12272;52.426;17.100;2022-08-21T13:56:32;18.80;99.90
24091;DHT22;12272;52.426;17.100;2022-08-21T14:01:49;18.60;99.90
24091;DHT22;12272;52.426;17.100;2022-08-21T14:06:53;18.40;99.90
24091;DHT22;12272;52.426;17.100;2022-08-21T14:11:58;18.20;99.90
24091;DHT22;12272;52.426;17.100;2022-08-21T14:17:06;17.90;99.90
24091;DHT22;12272;52.426;17.100;2022-08-21T14:22:32;18.10;99.90
24091;DHT22;12272;52.426;17.100;2022-08-21T14:28:03;17.80;99.90
24091;DHT22;12272;52.426;17.100;2022-08-21T14:33:15;17.90;99.90
24091;DHT22;12272;52.426;17.100;2022-08-21T14:38:23;17.80;99.90
24091;DHT22;12272;52.426;17.100;2022-08-21T14:43:27;17.60;99.90
24091;DHT22;12272;52.426;17.100;2022-08-21T14:48:30;17.50;99.90
24091;DHT22;12272;52.426;17.100;2022-08-21T14:53:33;17.40;99.90
24091;DHT22;12272;52.426;17.100;2022-08-21T14:58:42;17.30;99.90
24091;DHT22;12272;52.426;17.100;2022-08-21T15:03:47;17.30;99.90
24091;DHT22;12272;52.426;17.100;2022-08-21T15:08:50;17.30;99.90
24091;DHT22;12272;52.426;17.100;2022-08-21T15:13:56;17.10;99.90
24091;DHT22;12272;52.426;17.100;2022-08-21T15:19:00;17.00;99.90
24091;DHT22;12272;52.426;17.100;2022-08-21T15:24:03;17.00;99.90
24091;DHT22;12272;52.426;17.100;2022-08-21T15:29:06;17.30;99.90
24091;DHT22;12272;52.426;17.100;2022-08-21T15:34:09;16.60;99.90
24091;DHT22;12272;52.426;17.100;2022-08-21T15:39:12;16.90;99.90
24091;DHT22;12272;52.426;17.100;2022-08-21T15:44:15;16.40;99.90
24091;DHT22;12272;52.426;17.100;2022-08-21T15:49:18;16.50;99.90
24091;DHT22;12272;52.426;17.100;2022-08-21T15:54:20;16.40;99.90
24091;DHT22;12272;52.426;17.100;2022-08-21T15:59:23;16.70;99.90
24091;DHT22;12272;52.426;17.100;2022-08-21T16:04:27;16.60;99.90
24091;DHT22;12272;52.426;17.100;2022-08-21T16:09:30;16.50;99.90
24091;DHT22;12272;52.426;17.100;2022-08-21T16:14:34;17.70;99.90
24091;DHT22;12272;52.426;17.100;2022-08-21T16:19:39;16.80;99.90
24091;DHT22;12272;52.426;17.100;2022-08-21T16:24:42;16.50;99.90
24091;DHT22;12272;52.426;17.100;2022-08-21T16:29:45;16.70;99.90
24091;DHT22;12272;52.426;17.100;2022-08-21T16:34:48;16.40;99.90
24091;DHT22;12272;52.426;17.100;2022-08-21T16:39:51;16.30;99.90
24091;DHT22;12272;52.426;17.100;2022-08-21T16:44:54;16.50;99.90
24091;DHT22;12272;52.426;17.100;2022-08-21T16:49:59;16.30;99.90
24091;DHT22;12272;52.426;17.100;2022-08-21T16:55:03;16.50;99.90
24091;DHT22;12272;52.426;17.100;2022-08-21T17:00:07;17.30;99.90
24091;DHT22;12272;52.426;17.100;2022-08-21T17:05:14;17.50;99.90
24091;DHT22;12272;52.426;17.100;2022-08-21T17:10:16;16.60;99.90
24091;DHT22;12272;52.426;17.100;2022-08-21T17:15:25;16.50;99.90
24091;DHT22;12272;52.426;17.100;2022-08-21T17:20:28;16.70;99.90
24091;DHT22;12272;52.426;17.100;2022-08-21T17:25:32;16.40;99.90
24091;DHT22;12272;52.426;17.100;2022-08-21T17:30:34;16.50;99.90
24091;DHT22;12272;52.426;17.100;2022-08-21T17:35:37;16.50;99.90
24091;DHT22;12272;52.426;17.100;2022-08-21T17:40:39;16.90;99.90
24091;DHT22;12272;52.426;17.100;2022-08-21T17:45:43;17.30;99.90
24091;DHT22;12272;52.426;17.100;2022-08-21T17:50:46;16.50;99.90
24091;DHT22;12272;52.426;17.100;2022-08-21T17:55:49;16.60;99.90
24091;DHT22;12272;52.426;17.100;2022-08-21T18:00:53;16.40;99.90
24091;DHT22;12272;52.426;17.100;2022-08-21T18:05:56;16.00;99.90
24091;DHT22;12272;52.426;17.100;2022-08-21T18:10:59;16.40;99.90
24091;DHT22;12272;52.426;17.100;2022-08-21T18:16:03;16.10;99.90
24091;DHT22;12272;52.426;17.100;2022-08-21T18:21:06;16.00;99.90
24091;DHT22;12272;52.426;17.100;2022-08-21T18:26:09;16.00;99.90
24091;DHT22;12272;52.426;17.100;2022-08-21T18:31:12;15.60;99.90
24091;DHT22;12272;52.426;17.100;2022-08-21T18:36:15;15.60;99.90
24091;DHT22;12272;52.426;17.100;2022-08-21T18:41:17;16.70;99.90
24091;DHT22;12272;52.426;17.100;2022-08-21T18:46:20;17.40;99.90
24091;DHT22;12272;52.426;17.100;2022-08-21T18:51:23;17.30;99.90
24091;DHT22;12272;52.426;17.100;2022-08-21T18:56:27;16.20;99.90
24091;DHT22;12272;52.426;17.100;2022-08-21T19:01:30;15.70;99.90
24091;DHT22;12272;52.426;17.100;2022-08-21T19:06:33;15.60;99.90
24091;DHT22;12272;52.426;17.100;2022-08-21T19:11:40;15.50;99.90
24091;DHT22;12272;52.426;17.100;2022-08-21T19:16:45;15.60;99.90
24091;DHT22;12272;52.426;17.100;2022-08-21T19:21:49;15.80;99.90
24091;DHT22;12272;52.426;17.100;2022-08-21T19:26:51;15.20;99.90
24091;DHT22;12272;52.426;17.100;2022-08-21T19:31:57;15.40;99.90
24091;DHT22;12272;52.426;17.100;2022-08-21T19:37:00;15.80;99.90
24091;DHT22;12272;52.426;17.100;2022-08-21T19:42:04;15.60;99.90
24091;DHT22;12272;52.426;17.100;2022-08-21T19:47:16;15.40;99.90
24091;DHT22;12272;52.426;17.100;2022-08-21T19:52:20;15.60;99.90
24091;DHT22;12272;52.426;17.100;2022-08-21T19:57:23;16.10;99.90
24091;DHT22;12272;52.426;17.100;2022-08-21T20:02:26;16.80;99.90
24091;DHT22;12272;52.426;17.100;2022-08-21T20:07:28;17.20;99.90
24091;DHT22;12272;52.426;17.100;2022-08-21T20:12:33;17.10;99.90
24091;DHT22;12272;52.426;17.100;2022-08-21T20:17:36;18.10;99.90
24091;DHT22;12272;52.426;17.100;2022-08-21T20:22:41;19.20;99.90
24091;DHT22;12272;52.426;17.100;2022-08-21T20:27:44;19.30;99.90
24091;DHT22;12272;52.426;17.100;2022-08-21T20:32:48;18.30;99.90
24091;DHT22;12272;52.426;17.100;2022-08-21T20:37:52;17.70;99.90
24091;DHT22;12272;52.426;17.100;2022-08-21T20:43:01;17.60;99.90
24091;DHT22;12272;52.426;17.100;2022-08-21T20:48:20;17.50;99.90
24091;DHT22;12272;52.426;17.100;2022-08-21T20:53:45;17.10;99.90
24091;DHT22;12272;52.426;17.100;2022-08-21T21:04:44;16.80;99.90
24091;DHT22;12272;52.426;17.100;2022-08-21T21:09:49;17.20;99.90
24091;DHT22;12272;52.426;17.100;2022-08-21T21:14:55;18.00;99.90
24091;DHT22;12272;52.426;17.100;2022-08-21T21:20:11;18.10;99.90
24091;DHT22;12272;52.426;17.100;2022-08-21T21:30:43;17.50;99.90
24091;DHT22;12272;52.426;17.100;2022-08-21T21:35:56;17.30;99.90
24091;DHT22;12272;52.426;17.100;2022-08-21T21:47:20;16.90;99.90
24091;DHT22;12272;52.426;17.100;2022-08-21T22:24:34;17.40;99.90
24091;DHT22;12272;52.426;17.100;2022-08-21T22:29:52;18.10;99.90
24091;DHT22;12272;52.426;17.100;2022-08-21T22:40:05;17.30;99.90
24091;DHT22;12272;52.426;17.100;2022-08-21T22:45:08;17.00;99.90
24091;DHT22;12272;52.426;17.100;2022-08-21T22:55:36;16.40;99.90
24091;DHT22;12272;52.426;17.100;2022-08-21T23:01:00;16.40;99.90
24091;DHT22;12272;52.426;17.100;2022-08-21T23:11:43;16.30;99.90
24091;DHT22;12272;52.426;17.100;2022-08-21T23:17:04;16.50;99.90
24091;DHT22;12272;52.426;17.100;2022-08-21T23:22:38;16.40;99.90
24091;DHT22;12272;52.426;17.100;2022-08-21T23:33:34;16.90;99.90
24091;DHT22;12272;52.426;17.100;2022-08-21T23:49:53;15.90;99.90
